Time;durP1;ratioP1;P1;durP2;ratioP2;P2;SDS_P1;SDS_P2;PMS_P1;PMS_P2;Temp;Humidity;BMP_temperature;BMP_pressure;BME280_temperature;BME280_humidity;BME280_pressure;Samples;Min_cycle;Max_cycle;Signal;HPM_P1;HPM_P2
2024/04/09 00:06:07;;;;;;;;;;;17.40;99.90;;;;;;22896724;25;19995;-77
2024/04/09 00:16:12;;;;;;;;;;;17.30;99.90;;;;;;22891905;25;19928;-77
2024/04/09 00:26:13;;;;;;;;;;;17.30;99.90;;;;;;22894330;25;19935;-77
2024/04/09 00:36:14;;;;;;;;;;;16.80;99.90;;;;;;22893942;25;19959;-77
2024/04/09 00:46:15;;;;;;;;;;;16.60;99.90;;;;;;22896103;25;19938;-78
2024/04/09 00:56:16;;;;;;;;;;;16.60;99.90;;;;;;22889884;25;20335;-76
2024/04/09 01:06:17;;;;;;;;;;;16.40;99.90;;;;;;22896507;25;19935;-78
2024/04/09 01:16:18;;;;;;;;;;;16.70;99.90;;;;;;22891871;25;19927;-78
2024/04/09 01:26:18;;;;;;;;;;;16.80;99.90;;;;;;22869387;25;19938;-78
2024/04/09 01:36:20;;;;;;;;;;;16.60;99.90;;;;;;22865841;25;19942;-77
2024/04/09 01:46:20;;;;;;;;;;;16.70;99.90;;;;;;22860963;26;19935;-78
2024/04/09 01:56:21;;;;;;;;;;;16.60;99.90;;;;;;22857953;25;19991;-78
2024/04/09 02:06:23;;;;;;;;;;;16.80;99.90;;;;;;22856855;25;19942;-78
2024/04/09 02:16:25;;;;;;;;;;;16.80;99.90;;;;;;22855741;25;20011;-76
2024/04/09 02:26:26;;;;;;;;;;;16.70;99.90;;;;;;22821334;25;19960;-77
2024/04/09 02:36:43;;;;;;;;;;;16.70;99.90;;;;;;23095325;25;19923;-78
2024/04/09 02:46:44;;;;;;;;;;;17.10;99.90;;;;;;22998630;25;19927;-78
2024/04/09 02:56:44;;;;;;;;;;;17.30;99.90;;;;;;22984458;25;19935;-76
2024/04/09 03:06:45;;;;;;;;;;;17.30;99.90;;;;;;22975511;25;19955;-77
2024/04/09 03:16:45;;;;;;;;;;;17.50;99.90;;;;;;22982466;25;19927;-78
2024/04/09 03:26:46;;;;;;;;;;;17.30;99.90;;;;;;22989698;25;19959;-78
2024/04/09 03:36:48;;;;;;;;;;;17.20;99.90;;;;;;22978138;25;19932;-77
2024/04/09 03:46:49;;;;;;;;;;;17.00;99.90;;;;;;22916022;25;19964;-77
2024/04/09 03:56:50;;;;;;;;;;;16.90;99.90;;;;;;22949608;25;19938;-78
2024/04/09 04:06:50;;;;;;;;;;;16.80;99.90;;;;;;22918626;25;19931;-77
2024/04/09 04:16:51;;;;;;;;;;;16.40;99.90;;;;;;22906459;25;19933;-77
2024/04/09 04:26:52;;;;;;;;;;;16.20;99.90;;;;;;22921734;25;19947;-77
2024/04/09 04:36:53;;;;;;;;;;;16.10;99.90;;;;;;22929540;25;20001;-79
2024/04/09 04:46:53;;;;;;;;;;;15.90;99.90;;;;;;22928517;25;20359;-79
2024/04/09 04:56:54;;;;;;;;;;;15.80;99.90;;;;;;22906722;25;19937;-76
2024/04/09 05:06:55;;;;;;;;;;;15.60;99.90;;;;;;22881733;25;19935;-78
2024/04/09 05:16:55;;;;;;;;;;;15.60;99.90;;;;;;22891858;25;20021;-79
2024/04/09 05:26:56;;;;;;;;;;;15.60;99.90;;;;;;22908362;25;19934;-79
2024/04/09 05:36:56;;;;;;;;;;;15.50;99.90;;;;;;22889812;25;19955;-77
2024/04/09 05:46:58;;;;;;;;;;;15.40;99.90;;;;;;22889554;25;19996;-77
2024/04/09 05:56:59;;;;;;;;;;;15.50;99.90;;;;;;22888889;25;19927;-78
2024/04/09 06:07:01;;;;;;;;;;;15.20;99.90;;;;;;22880072;25;19935;-78
2024/04/09 06:17:02;;;;;;;;;;;12.80;99.90;;;;;;22892035;25;19935;-79
2024/04/09 06:27:03;;;;;;;;;;;12.10;99.90;;;;;;22891202;25;19927;-78
2024/04/09 06:37:04;;;;;;;;;;;11.70;99.90;;;;;;22888342;25;20366;-79
2024/04/09 06:47:05;;;;;;;;;;;11.20;99.90;;;;;;22889019;25;19973;-79
2024/04/09 06:57:05;;;;;;;;;;;11.10;99.90;;;;;;22882510;25;19927;-78
2024/04/09 07:07:06;;;;;;;;;;;11.10;99.90;;;;;;22860372;26;20415;-75
2024/04/09 07:17:07;;;;;;;;;;;11.00;99.90;;;;;;22865615;25;19934;-75
2024/04/09 07:27:07;;;;;;;;;;;10.60;99.90;;;;;;22882509;25;19931;-74
2024/04/09 07:37:08;;;;;;;;;;;10.50;99.90;;;;;;22876300;25;19932;-74
2024/04/09 07:47:10;;;;;;;;;;;10.50;99.90;;;;;;22874851;25;19932;-76
2024/04/09 07:57:14;;;;;;;;;;;10.30;99.90;;;;;;22874039;25;20259;-76
2024/04/09 08:07:15;;;;;;;;;;;10.40;99.90;;;;;;22877081;25;19927;-77
2024/04/09 08:17:15;;;;;;;;;;;10.30;99.90;;;;;;22872373;25;19928;-76
2024/04/09 08:27:16;;;;;;;;;;;10.30;99.90;;;;;;22874569;25;19934;-76
2024/04/09 08:37:17;;;;;;;;;;;9.90;99.90;;;;;;22868583;25;19935;-76
2024/04/09 08:47:24;;;;;;;;;;;9.80;99.90;;;;;;22871148;25;20410;-76
2024/04/09 08:57:25;;;;;;;;;;;9.60;99.90;;;;;;22869638;25;19935;-76
2024/04/09 09:07:25;;;;;;;;;;;9.30;99.90;;;;;;22869524;25;19935;-76
2024/04/09 09:17:30;;;;;;;;;;;8.90;99.90;;;;;;22883048;25;20394;-76
2024/04/09 09:27:31;;;;;;;;;;;8.50;99.90;;;;;;22880757;25;19928;-76
2024/04/09 09:37:33;;;;;;;;;;;8.30;99.90;;;;;;22889620;25;19934;-78
2024/04/09 09:47:36;;;;;;;;;;;8.20;99.90;;;;;;22873840;25;19935;-75
2024/04/09 09:57:38;;;;;;;;;;;8.00;99.90;;;;;;22884700;25;19993;-76
2024/04/09 10:07:39;;;;;;;;;;;8.10;99.90;;;;;;22866897;25;19935;-77
2024/04/09 10:17:56;;;;;;;;;;;8.00;99.90;;;;;;22893370;25;20342;-77
2024/04/09 10:28:01;;;;;;;;;;;7.80;99.90;;;;;;22890853;25;20362;-78
2024/04/09 10:38:05;;;;;;;;;;;7.60;99.90;;;;;;22894935;25;20251;-76
2024/04/09 10:48:07;;;;;;;;;;;7.70;99.90;;;;;;22864282;25;19931;-78
2024/04/09 10:58:13;;;;;;;;;;;7.90;99.90;;;;;;22924915;25;19995;-78
2024/04/09 11:08:22;;;;;;;;;;;8.00;99.90;;;;;;22906601;25;19928;-79
2024/04/09 11:18:23;;;;;;;;;;;8.10;99.90;;;;;;22933010;25;19935;-78
2024/04/09 11:28:24;;;;;;;;;;;8.10;99.90;;;;;;22896711;25;19927;-76
2024/04/09 11:38:24;;;;;;;;;;;8.10;99.90;;;;;;22896419;25;19971;-78
2024/04/09 11:48:25;;;;;;;;;;;8.10;99.90;;;;;;22902723;25;19938;-78
2024/04/09 11:58:26;;;;;;;;;;;7.90;99.90;;;;;;22894108;25;19927;-78
2024/04/09 12:08:27;;;;;;;;;;;8.10;99.90;;;;;;22893409;25;19927;-77
2024/04/09 12:18:27;;;;;;;;;;;8.00;99.90;;;;;;22916243;25;19927;-78
2024/04/09 12:28:28;;;;;;;;;;;8.00;99.90;;;;;;22964308;25;19926;-78
2024/04/09 12:38:29;;;;;;;;;;;7.90;99.90;;;;;;22916820;25;19935;-77
2024/04/09 12:48:29;;;;;;;;;;;7.80;99.90;;;;;;22872627;25;19935;-77
2024/04/09 12:58:30;;;;;;;;;;;7.90;99.90;;;;;;22880900;25;19938;-79
2024/04/09 13:08:31;;;;;;;;;;;8.20;99.90;;;;;;22902783;25;20381;-78
2024/04/09 13:18:32;;;;;;;;;;;8.30;99.90;;;;;;22916985;25;19934;-77
2024/04/09 13:28:37;;;;;;;;;;;7.90;99.90;;;;;;22880527;25;19934;-78
2024/04/09 13:38:45;;;;;;;;;;;7.90;99.90;;;;;;22864467;25;19995;-77
2024/04/09 13:48:46;;;;;;;;;;;7.90;99.90;;;;;;22883847;25;19937;-79
2024/04/09 13:58:47;;;;;;;;;;;7.80;99.90;;;;;;22917969;25;19931;-79
2024/04/09 14:08:48;;;;;;;;;;;7.60;99.90;;;;;;22891958;25;19934;-79
2024/04/09 14:18:49;;;;;;;;;;;7.40;99.90;;;;;;22877343;25;19928;-78
2024/04/09 14:28:51;;;;;;;;;;;7.30;99.90;;;;;;22856655;25;19928;-78
2024/04/09 14:38:52;;;;;;;;;;;7.20;99.90;;;;;;22872391;25;19927;-79
2024/04/09 14:48:53;;;;;;;;;;;7.20;99.90;;;;;;22887747;25;19927;-78
2024/04/09 14:58:53;;;;;;;;;;;7.30;99.90;;;;;;22864377;25;20290;-78
2024/04/09 15:08:54;;;;;;;;;;;7.20;99.90;;;;;;22879144;25;19938;-77
2024/04/09 15:18:56;;;;;;;;;;;7.20;99.90;;;;;;22874279;25;19927;-79
2024/04/09 15:28:56;;;;;;;;;;;7.20;99.90;;;;;;22865285;25;19927;-78
2024/04/09 15:38:58;;;;;;;;;;;7.40;99.90;;;;;;22877487;25;19933;-79
2024/04/09 15:48:59;;;;;;;;;;;7.70;99.90;;;;;;22908444;25;19927;-78
2024/04/09 15:59:03;;;;;;;;;;;7.80;99.90;;;;;;22890133;25;19934;-79
2024/04/09 16:09:07;;;;;;;;;;;8.00;99.90;;;;;;22897818;25;19927;-79
2024/04/09 16:19:08;;;;;;;;;;;8.70;99.90;;;;;;22904937;25;19928;-80
2024/04/09 16:29:09;;;;;;;;;;;9.20;99.90;;;;;;22914036;25;19935;-81
2024/04/09 16:39:09;;;;;;;;;;;9.10;99.90;;;;;;22919691;25;19972;-79
2024/04/09 16:49:10;;;;;;;;;;;8.80;99.90;;;;;;22943819;25;19935;-79
2024/04/09 16:59:11;;;;;;;;;;;8.80;99.90;;;;;;22923059;25;19935;-79
2024/04/09 17:09:14;;;;;;;;;;;8.60;99.90;;;;;;22898444;25;19972;-81
2024/04/09 17:19:14;;;;;;;;;;;8.30;99.90;;;;;;22895745;25;20274;-79
2024/04/09 17:29:15;;;;;;;;;;;8.30;99.90;;;;;;22900404;25;19942;-80
2024/04/09 17:39:15;;;;;;;;;;;8.40;99.90;;;;;;22884885;25;19927;-80
2024/04/09 17:49:17;;;;;;;;;;;8.20;99.90;;;;;;22961585;25;19935;-76
2024/04/09 17:59:18;;;;;;;;;;;8.00;99.90;;;;;;22939787;25;19931;-79
2024/04/09 18:09:18;;;;;;;;;;;7.70;99.90;;;;;;22905118;25;19963;-82
2024/04/09 18:19:20;;;;;;;;;;;7.50;99.90;;;;;;22916389;25;19927;-84
2024/04/09 18:29:21;;;;;;;;;;;7.40;99.90;;;;;;22940327;25;19934;-80
2024/04/09 18:39:22;;;;;;;;;;;7.30;99.90;;;;;;22913394;25;19939;-81
2024/04/09 18:49:22;;;;;;;;;;;7.30;99.90;;;;;;22928663;25;19935;-85
2024/04/09 18:59:23;;;;;;;;;;;7.30;99.90;;;;;;22926295;25;19938;-80
2024/04/09 19:09:24;;;;;;;;;;;7.30;99.90;;;;;;22932298;25;19927;-82
2024/04/09 19:19:24;;;;;;;;;;;7.30;99.90;;;;;;22958477;25;19931;-83
2024/04/09 19:29:29;;;;;;;;;;;7.20;99.90;;;;;;22925103;25;19931;-80
2024/04/09 19:39:30;;;;;;;;;;;7.20;99.90;;;;;;22969850;25;19930;-82
2024/04/09 19:49:31;;;;;;;;;;;7.00;99.90;;;;;;22959988;25;19931;-84
2024/04/09 19:59:35;;;;;;;;;;;7.10;99.90;;;;;;22906248;25;19944;-82
2024/04/09 20:09:35;;;;;;;;;;;7.00;99.90;;;;;;22951107;25;19936;-82
2024/04/09 20:19:36;;;;;;;;;;;7.00;99.90;;;;;;22953136;25;19933;-82
2024/04/09 20:29:37;;;;;;;;;;;7.10;99.90;;;;;;22914261;25;20378;-78
2024/04/09 20:39:37;;;;;;;;;;;7.00;99.90;;;;;;22908892;25;20341;-82
2024/04/09 20:49:38;;;;;;;;;;;7.20;99.90;;;;;;22907835;25;19931;-82
2024/04/09 20:59:39;;;;;;;;;;;7.20;99.90;;;;;;22916086;25;19951;-81
2024/04/09 21:09:40;;;;;;;;;;;7.10;99.90;;;;;;22912585;25;20116;-82
2024/04/09 21:19:41;;;;;;;;;;;6.80;99.90;;;;;;22932968;25;20039;-82
2024/04/09 21:29:42;;;;;;;;;;;6.70;99.90;;;;;;22974819;25;19958;-80
2024/04/09 21:39:43;;;;;;;;;;;6.60;99.90;;;;;;22995112;25;19934;-84
2024/04/09 21:49:44;;;;;;;;;;;6.60;99.90;;;;;;22988947;25;19963;-81
2024/04/09 21:59:44;;;;;;;;;;;6.60;99.90;;;;;;22943155;25;19928;-82
2024/04/09 22:09:46;;;;;;;;;;;6.90;99.90;;;;;;22957391;25;19928;-84
2024/04/09 22:19:47;;;;;;;;;;;6.90;99.90;;;;;;22937111;25;19948;-80
2024/04/09 22:29:47;;;;;;;;;;;7.00;99.90;;;;;;22933151;25;19934;-82
2024/04/09 22:39:48;;;;;;;;;;;7.00;99.90;;;;;;22933869;25;19986;-80
2024/04/09 22:49:48;;;;;;;;;;;6.90;99.90;;;;;;22929991;25;19935;-81
2024/04/09 22:59:49;;;;;;;;;;;7.10;99.90;;;;;;22931738;25;19932;-82
2024/04/09 23:09:50;;;;;;;;;;;7.10;99.90;;;;;;22938260;25;19935;-82
2024/04/09 23:19:53;;;;;;;;;;;6.90;99.90;;;;;;22979247;25;19938;-82
2024/04/09 23:29:53;;;;;;;;;;;6.80;99.90;;;;;;23026189;25;19934;-81
2024/04/09 23:39:54;;;;;;;;;;;6.50;99.90;;;;;;22961748;25;19927;-79
2024/04/09 23:49:55;;;;;;;;;;;6.50;99.90;;;;;;22962426;25;19937;-80
2024/04/09 23:59:55;;;;;;;;;;;6.50;99.90;;;;;;23005076;25;19994;-81
